PWSweather.com
Personal Weather Stations
Station Observations
EDDERTON
Rossshire, EddertonGB IV191LA

RossshireEddertonGB IV191LA

Lat: 57.838, Lon: -4.176

Elevation: 60

Station Type: Davis Vantage PRO2 Wireless With Solar Sensor

http://www.ardmore-lodge.com

Latest ConditionsUpdated 12:30:05 PM GMT Saturday, Oct 25, 2014
Currently Today's Max Today's Min Today's Average
Temperature 55.6°F13.1°C 57.1°F13.9°C 45.4°F7.4°C 48.9°F9.4°C
Dew Point 46.0°F7.8°C 47.5°F8.6°C 41.5°F5.3°C 44.6°F7.0°C
Winds 1.2 mph N1.9 kmh N 10.7 mph SW17.2 kmh SW - 3.8 mph 6.1 kmh
Wind Gusts 2.0 mph3.2 kmh 21.0 mph33.8 kmh - -
Humidity 70% 94% 70% 85%
Pressure 29.41 in995.9 mb 29.54 in1000.3 mb 29.41 in995.9 mb -
Precipitation - 0.06 in1.5 mm - -
Hour Temp Dew Point Humidity Winds Wind Gusts Pressure Precip Precip Rate Daily Precip Total
12:30 PM 55.6°F13.1°C 46.0°F7.8°C 70% 1.2 mph N1.9 kmh N 2.0 mph3.2 kmh 29.41 in995.9 mb 0.00 in0.0 mm 0.00 in/hr0.0 mm/hr 0.06 in1.5 mm
12:15 PM 54.8°F12.7°C 45.6°F7.6°C 71% 4.6 mph WSW7.4 kmh WSW 14.0 mph22.5 kmh 29.42 in996.3 mb 0.00 in0.0 mm 0.00 in/hr0.0 mm/hr 0.06 in1.5 mm
12:00 PM 55.9°F13.3°C 46.2°F7.9°C 70% 9.5 mph WSW15.3 kmh WSW 14.0 mph22.5 kmh 29.42 in996.3 mb 0.00 in0.0 mm 0.00 in/hr0.0 mm/hr 0.06 in1.5 mm
11:45 AM 57.1°F13.9°C 47.4°F8.6°C 70% 0.2 mph ESE0.3 kmh ESE 3.0 mph4.8 kmh 29.42 in996.3 mb 0.00 in0.0 mm 0.00 in/hr0.0 mm/hr 0.06 in1.5 mm
11:30 AM 56.0°F13.3°C 47.5°F8.6°C 73% 1.3 mph SE2.1 kmh SE 3.0 mph4.8 kmh 29.42 in996.3 mb 0.00 in0.0 mm 0.00 in/hr0.0 mm/hr 0.06 in1.5 mm
11:15 AM 55.2°F12.9°C 46.3°F7.9°C 72% 6.4 mph SW10.3 kmh SW 10.0 mph16.1 kmh 29.42 in996.3 mb 0.00 in0.0 mm 0.00 in/hr0.0 mm/hr 0.06 in1.5 mm
11:00 AM 54.5°F12.5°C 46.7°F8.2°C 75% 10.4 mph W16.7 kmh W 21.0 mph33.8 kmh 29.43 in996.6 mb 0.00 in0.0 mm 0.00 in/hr0.0 mm/hr 0.06 in1.5 mm
10:45 AM 53.7°F12.1°C 47.3°F8.5°C 79% 2.4 mph SW3.9 kmh SW 5.0 mph8.0 kmh 29.43 in996.6 mb 0.00 in0.0 mm 0.00 in/hr0.0 mm/hr 0.06 in1.5 mm
10:30 AM 53.2°F11.8°C 46.9°F8.3°C 79% 8.8 mph SW14.2 kmh SW 12.0 mph19.3 kmh 29.42 in996.3 mb 0.00 in0.0 mm 0.00 in/hr0.0 mm/hr 0.06 in1.5 mm
10:15 AM 53.2°F11.8°C 47.2°F8.4°C 80% 9.7 mph SSW15.6 kmh SSW 19.0 mph30.6 kmh 29.42 in996.3 mb 0.00 in0.0 mm 0.00 in/hr0.0 mm/hr 0.06 in1.5 mm
10:00 AM 51.8°F11.0°C 46.8°F8.2°C 83% 9.8 mph SW15.8 kmh SW 13.0 mph20.9 kmh 29.43 in996.6 mb 0.00 in0.0 mm 0.00 in/hr0.0 mm/hr 0.06 in1.5 mm
09:45 AM 50.6°F10.3°C 46.9°F8.3°C 87% 5.6 mph SW9.0 kmh SW 7.0 mph11.3 kmh 29.43 in996.6 mb 0.00 in0.0 mm 0.00 in/hr0.0 mm/hr 0.06 in1.5 mm
09:30 AM 49.5°F9.7°C 46.4°F8.0°C 89% 4.4 mph SSW7.1 kmh SSW 10.0 mph16.1 kmh 29.44 in997.0 mb 0.00 in0.0 mm 0.00 in/hr0.0 mm/hr 0.06 in1.5 mm
09:15 AM 49.5°F9.7°C 46.1°F7.8°C 88% 6.5 mph SW10.5 kmh SW 11.0 mph17.7 kmh 29.44 in997.0 mb 0.01 in0.3 mm 0.04 in/hr1.0 mm/hr 0.06 in1.5 mm
09:00 AM 49.8°F9.9°C 47.3°F8.5°C 91% 9.6 mph W15.4 kmh W 13.0 mph20.9 kmh 29.44 in997.0 mb 0.03 in0.8 mm 0.04 in/hr1.0 mm/hr 0.06 in1.5 mm
08:45 AM 48.5°F9.2°C 46.5°F8.1°C 93% 3.7 mph WSW6.0 kmh WSW 7.0 mph11.3 kmh 29.42 in996.3 mb 0.01 in0.3 mm 0.04 in/hr1.0 mm/hr 0.04 in1.0 mm
08:30 AM 47.7°F8.7°C 46.1°F7.8°C 94% 1.9 mph N3.1 kmh N 4.0 mph6.4 kmh 29.42 in996.3 mb 0.00 in0.0 mm 0.00 in/hr0.0 mm/hr 0.03 in0.8 mm
08:15 AM 47.3°F8.5°C 45.7°F7.6°C 94% 0.5 mph N0.8 kmh N 2.0 mph3.2 kmh 29.42 in996.3 mb 0.00 in0.0 mm 0.00 in/hr0.0 mm/hr 0.03 in0.8 mm
08:00 AM 47.0°F8.3°C 45.4°F7.4°C 94% 0.7 mph N1.1 kmh N 2.0 mph3.2 kmh 29.41 in995.9 mb 0.00 in0.0 mm 0.00 in/hr0.0 mm/hr 0.03 in0.8 mm
07:45 AM 46.6°F8.1°C 44.9°F7.2°C 94% 3.9 mph NW6.3 kmh NW 5.0 mph8.0 kmh 29.42 in996.3 mb 0.00 in0.0 mm 0.00 in/hr0.0 mm/hr 0.03 in0.8 mm
07:30 AM 46.5°F8.1°C 44.3°F6.8°C 92% 5.2 mph W8.4 kmh W 8.0 mph12.9 kmh 29.41 in995.9 mb 0.01 in0.3 mm 0.04 in/hr1.0 mm/hr 0.03 in0.8 mm
07:15 AM 46.2°F7.9°C 44.3°F6.8°C 93% 3.0 mph SE4.8 kmh SE 4.0 mph6.4 kmh 29.42 in996.3 mb 0.01 in0.3 mm 0.04 in/hr1.0 mm/hr 0.02 in0.5 mm
07:00 AM 46.5°F8.1°C 44.0°F6.7°C 91% 0.1 mph ESE0.2 kmh ESE 1.0 mph1.6 kmh 29.43 in996.6 mb 0.00 in0.0 mm 0.00 in/hr0.0 mm/hr 0.01 in0.3 mm
06:45 AM 47.0°F8.3°C 44.2°F6.8°C 90% 1.4 mph SE2.3 kmh SE 2.0 mph3.2 kmh 29.43 in996.6 mb 0.01 in0.3 mm 0.04 in/hr1.0 mm/hr 0.01 in0.3 mm
06:30 AM 47.5°F8.6°C 44.1°F6.7°C 88% 2.0 mph ESE3.2 kmh ESE 3.0 mph4.8 kmh 29.43 in996.6 mb 0.00 in0.0 mm 0.00 in/hr0.0 mm/hr 0.00 in0.0 mm
06:15 AM 47.7°F8.7°C 44.6°F7.0°C 89% 1.6 mph SE2.6 kmh SE 3.0 mph4.8 kmh 29.43 in996.6 mb 0.00 in0.0 mm 0.00 in/hr0.0 mm/hr 0.00 in0.0 mm
06:00 AM 47.2°F8.4°C 44.2°F6.8°C 89% 1.0 mph SE1.6 kmh SE 1.0 mph1.6 kmh 29.44 in997.0 mb 0.00 in0.0 mm 0.00 in/hr0.0 mm/hr 0.00 in0.0 mm
05:45 AM 47.1°F8.4°C 43.7°F6.5°C 88% 1.1 mph SSE1.8 kmh SSE 2.0 mph3.2 kmh 29.45 in997.3 mb 0.00 in0.0 mm 0.00 in/hr0.0 mm/hr 0.00 in0.0 mm
05:30 AM 47.2°F8.4°C 43.8°F6.6°C 88% 1.2 mph S1.9 kmh S 2.0 mph3.2 kmh 29.45 in997.3 mb 0.00 in0.0 mm 0.00 in/hr0.0 mm/hr 0.00 in0.0 mm
05:15 AM 46.7°F8.2°C 43.6°F6.4°C 89% 2.8 mph SSW4.5 kmh SSW 4.0 mph6.4 kmh 29.47 in998.0 mb 0.00 in0.0 mm 0.00 in/hr0.0 mm/hr 0.00 in0.0 mm
05:00 AM 46.6°F8.1°C 43.5°F6.4°C 89% 3.5 mph SSW5.6 kmh SSW 4.0 mph6.4 kmh 29.46 in997.6 mb 0.00 in0.0 mm 0.00 in/hr0.0 mm/hr 0.00 in0.0 mm
04:45 AM 46.6°F8.1°C 43.2°F6.2°C 88% 2.0 mph SW3.2 kmh SW 3.0 mph4.8 kmh 29.47 in998.0 mb 0.00 in0.0 mm 0.00 in/hr0.0 mm/hr 0.00 in0.0 mm
04:30 AM 46.9°F8.3°C 43.2°F6.2°C 87% 0.5 mph SW0.8 kmh SW 2.0 mph3.2 kmh 29.49 in998.6 mb 0.00 in0.0 mm 0.00 in/hr0.0 mm/hr 0.00 in0.0 mm
04:15 AM 47.0°F8.3°C 43.3°F6.3°C 87% 1.6 mph SW2.6 kmh SW 2.0 mph3.2 kmh 29.49 in998.6 mb 0.00 in0.0 mm 0.00 in/hr0.0 mm/hr 0.00 in0.0 mm
04:00 AM 47.3°F8.5°C 43.3°F6.3°C 86% 1.8 mph SW2.9 kmh SW 3.0 mph4.8 kmh 29.50 in999.0 mb 0.00 in0.0 mm 0.00 in/hr0.0 mm/hr 0.00 in0.0 mm
03:45 AM 47.7°F8.7°C 43.4°F6.3°C 85% 0.2 mph SW0.3 kmh SW 3.0 mph4.8 kmh 29.51 in999.3 mb 0.00 in0.0 mm 0.00 in/hr0.0 mm/hr 0.00 in0.0 mm
03:30 AM 48.1°F8.9°C 43.5°F6.4°C 84% 0.1 mph SW0.2 kmh SW 1.0 mph1.6 kmh 29.51 in999.3 mb 0.00 in0.0 mm 0.00 in/hr0.0 mm/hr 0.00 in0.0 mm
03:15 AM 48.2°F9.0°C 43.3°F6.3°C 83% 0.1 mph SW0.2 kmh SW 1.0 mph1.6 kmh 29.51 in999.3 mb 0.00 in0.0 mm 0.00 in/hr0.0 mm/hr 0.00 in0.0 mm
03:00 AM 47.8°F8.8°C 43.2°F6.2°C 84% 2.8 mph SSW4.5 kmh SSW 4.0 mph6.4 kmh 29.51 in999.3 mb 0.00 in0.0 mm 0.00 in/hr0.0 mm/hr 0.00 in0.0 mm
02:45 AM 47.5°F8.6°C 43.2°F6.2°C 85% 5.7 mph SW9.2 kmh SW 7.0 mph11.3 kmh 29.52 in999.7 mb 0.00 in0.0 mm 0.00 in/hr0.0 mm/hr 0.00 in0.0 mm
02:30 AM 47.2°F8.4°C 43.2°F6.2°C 86% 7.9 mph SW12.7 kmh SW 12.0 mph19.3 kmh 29.52 in999.7 mb 0.00 in0.0 mm 0.00 in/hr0.0 mm/hr 0.00 in0.0 mm
02:15 AM 47.5°F8.6°C 43.5°F6.4°C 86% 8.4 mph SW13.5 kmh SW 14.0 mph22.5 kmh 29.52 in999.7 mb 0.00 in0.0 mm 0.00 in/hr0.0 mm/hr 0.00 in0.0 mm
02:00 AM 46.2°F7.9°C 42.9°F6.1°C 88% 10.7 mph SW17.2 kmh SW 14.0 mph22.5 kmh 29.52 in999.7 mb 0.00 in0.0 mm 0.00 in/hr0.0 mm/hr 0.00 in0.0 mm
01:45 AM 46.5°F8.1°C 41.9°F5.5°C 84% 1.5 mph SW2.4 kmh SW 3.0 mph4.8 kmh 29.53 in1000.0 mb 0.00 in0.0 mm 0.00 in/hr0.0 mm/hr 0.00 in0.0 mm
01:30 AM 47.5°F8.6°C 42.9°F6.1°C 84% 3.7 mph SW6.0 kmh SW 6.0 mph9.7 kmh 29.53 in1000.0 mb 0.00 in0.0 mm 0.00 in/hr0.0 mm/hr 0.00 in0.0 mm
01:15 AM 47.0°F8.3°C 42.7°F5.9°C 85% 8.1 mph SW13.0 kmh SW 13.0 mph20.9 kmh 29.53 in1000.0 mb 0.00 in0.0 mm 0.00 in/hr0.0 mm/hr 0.00 in0.0 mm
01:00 AM 46.0°F7.8°C 42.6°F5.9°C 88% 8.2 mph SW13.2 kmh SW 10.0 mph16.1 kmh 29.54 in1000.3 mb 0.00 in0.0 mm 0.00 in/hr0.0 mm/hr 0.00 in0.0 mm
12:45 AM 45.4°F7.4°C 41.5°F5.3°C 86% 0.4 mph SW0.6 kmh SW 3.0 mph4.8 kmh 29.54 in1000.3 mb 0.00 in0.0 mm 0.00 in/hr0.0 mm/hr 0.00 in0.0 mm
12:30 AM 46.8°F8.2°C 42.5°F5.8°C 85% 0.4 mph SW0.6 kmh SW 2.0 mph3.2 kmh 29.54 in1000.3 mb 0.00 in0.0 mm 0.00 in/hr0.0 mm/hr 0.00 in0.0 mm
12:15 AM 47.2°F8.4°C 42.6°F5.9°C 84% 2.4 mph SSW3.9 kmh SSW 4.0 mph6.4 kmh 29.54 in1000.3 mb 0.00 in0.0 mm 0.00 in/hr0.0 mm/hr 0.00 in0.0 mm
12:00 AM 47.4°F8.6°C 43.1°F6.2°C 85% 2.0 mph SSW3.2 kmh SSW 5.0 mph8.0 kmh 29.54 in1000.3 mb 0.00 in0.0 mm 0.00 in/hr0.0 mm/hr 0.00 in0.0 mm